sensor_id;sensor_type;location;lat;lon;timestamp;temperature;humidity
4518;DHT22;2271;49.464;11.070;2023-05-10T00:01:11;17.70;99.90
4518;DHT22;2271;49.464;11.070;2023-05-10T00:03:37;17.70;99.90
4518;DHT22;2271;49.464;11.070;2023-05-10T00:06:02;17.80;99.90
4518;DHT22;2271;49.464;11.070;2023-05-10T00:08:28;17.80;99.90
4518;DHT22;2271;49.464;11.070;2023-05-10T00:10:54;17.80;99.90
4518;DHT22;2271;49.464;11.070;2023-05-10T00:13:20;17.70;99.90
4518;DHT22;2271;49.464;11.070;2023-05-10T00:15:46;17.70;99.90
4518;DHT22;2271;49.464;11.070;2023-05-10T00:18:12;17.60;99.90
4518;DHT22;2271;49.464;11.070;2023-05-10T00:20:37;17.60;99.90
4518;DHT22;2271;49.464;11.070;2023-05-10T00:23:03;17.50;99.90
4518;DHT22;2271;49.464;11.070;2023-05-10T00:25:28;17.50;99.90
4518;DHT22;2271;49.464;11.070;2023-05-10T00:27:54;17.50;99.90
4518;DHT22;2271;49.464;11.070;2023-05-10T00:30:22;17.50;99.90
4518;DHT22;2271;49.464;11.070;2023-05-10T00:32:48;17.50;99.90
4518;DHT22;2271;49.464;11.070;2023-05-10T00:35:15;17.40;99.90
4518;DHT22;2271;49.464;11.070;2023-05-10T00:37:41;17.40;99.90
4518;DHT22;2271;49.464;11.070;2023-05-10T00:40:07;17.40;99.90
4518;DHT22;2271;49.464;11.070;2023-05-10T00:42:32;17.30;99.90
4518;DHT22;2271;49.464;11.070;2023-05-10T00:44:58;17.30;99.90
4518;DHT22;2271;49.464;11.070;2023-05-10T00:47:24;17.20;99.90
4518;DHT22;2271;49.464;11.070;2023-05-10T00:49:50;17.20;99.90
4518;DHT22;2271;49.464;11.070;2023-05-10T00:52:16;17.10;99.90
4518;DHT22;2271;49.464;11.070;2023-05-10T00:54:42;17.10;99.90
4518;DHT22;2271;49.464;11.070;2023-05-10T00:57:07;17.10;99.90
4518;DHT22;2271;49.464;11.070;2023-05-10T00:59:33;17.10;99.90
4518;DHT22;2271;49.464;11.070;2023-05-10T01:01:59;17.10;99.90
4518;DHT22;2271;49.464;11.070;2023-05-10T01:04:24;17.00;99.90
4518;DHT22;2271;49.464;11.070;2023-05-10T01:06:53;17.00;99.90
4518;DHT22;2271;49.464;11.070;2023-05-10T01:09:21;17.00;99.90
4518;DHT22;2271;49.464;11.070;2023-05-10T01:11:47;17.00;99.90
4518;DHT22;2271;49.464;11.070;2023-05-10T01:14:15;16.90;99.90
4518;DHT22;2271;49.464;11.070;2023-05-10T01:16:42;16.90;99.90
4518;DHT22;2271;49.464;11.070;2023-05-10T01:19:23;16.90;99.90
4518;DHT22;2271;49.464;11.070;2023-05-10T01:25:17;16.90;99.90
4518;DHT22;2271;49.464;11.070;2023-05-10T01:31:08;17.00;99.90
4518;DHT22;2271;49.464;11.070;2023-05-10T01:33:26;17.00;99.90
4518;DHT22;2271;49.464;11.070;2023-05-10T01:38:43;16.80;99.90
4518;DHT22;2271;49.464;11.070;2023-05-10T01:41:51;16.80;99.90
4518;DHT22;2271;49.464;11.070;2023-05-10T01:45:05;16.90;99.90
4518;DHT22;2271;49.464;11.070;2023-05-10T01:47:34;16.90;99.90
4518;DHT22;2271;49.464;11.070;2023-05-10T01:50:02;16.90;99.90
4518;DHT22;2271;49.464;11.070;2023-05-10T01:52:42;16.80;99.90
4518;DHT22;2271;49.464;11.070;2023-05-10T01:55:13;16.90;99.90
4518;DHT22;2271;49.464;11.070;2023-05-10T01:57:42;16.80;99.90
4518;DHT22;2271;49.464;11.070;2023-05-10T02:00:09;16.80;99.90
4518;DHT22;2271;49.464;11.070;2023-05-10T02:02:39;16.80;99.90
4518;DHT22;2271;49.464;11.070;2023-05-10T02:05:08;16.80;99.90
4518;DHT22;2271;49.464;11.070;2023-05-10T02:07:36;16.80;99.90
4518;DHT22;2271;49.464;11.070;2023-05-10T02:10:04;16.80;99.90
4518;DHT22;2271;49.464;11.070;2023-05-10T02:12:32;16.70;99.90
4518;DHT22;2271;49.464;11.070;2023-05-10T02:15:02;16.70;99.90
4518;DHT22;2271;49.464;11.070;2023-05-10T02:17:31;16.70;99.90
4518;DHT22;2271;49.464;11.070;2023-05-10T02:19:58;16.80;99.90
4518;DHT22;2271;49.464;11.070;2023-05-10T02:22:25;16.80;99.90
4518;DHT22;2271;49.464;11.070;2023-05-10T02:24:53;16.70;99.90
4518;DHT22;2271;49.464;11.070;2023-05-10T02:27:20;16.80;99.90
4518;DHT22;2271;49.464;11.070;2023-05-10T02:29:48;16.80;99.90
4518;DHT22;2271;49.464;11.070;2023-05-10T02:32:14;16.80;99.90
4518;DHT22;2271;49.464;11.070;2023-05-10T02:34:41;16.80;99.90
4518;DHT22;2271;49.464;11.070;2023-05-10T02:37:07;16.80;99.90
4518;DHT22;2271;49.464;11.070;2023-05-10T02:39:34;16.80;99.90
4518;DHT22;2271;49.464;11.070;2023-05-10T02:42:00;16.80;99.90
4518;DHT22;2271;49.464;11.070;2023-05-10T02:44:28;16.80;99.90
4518;DHT22;2271;49.464;11.070;2023-05-10T02:46:56;16.80;99.90
4518;DHT22;2271;49.464;11.070;2023-05-10T02:49:22;16.70;99.90
4518;DHT22;2271;49.464;11.070;2023-05-10T02:51:51;16.70;99.90
4518;DHT22;2271;49.464;11.070;2023-05-10T02:54:24;16.70;99.90
4518;DHT22;2271;49.464;11.070;2023-05-10T02:56:57;16.70;99.90
4518;DHT22;2271;49.464;11.070;2023-05-10T02:59:23;16.70;99.90
4518;DHT22;2271;49.464;11.070;2023-05-10T03:01:49;16.70;99.90
4518;DHT22;2271;49.464;11.070;2023-05-10T03:04:15;16.70;99.90
4518;DHT22;2271;49.464;11.070;2023-05-10T03:06:41;16.60;99.90
4518;DHT22;2271;49.464;11.070;2023-05-10T03:09:07;16.60;99.90
4518;DHT22;2271;49.464;11.070;2023-05-10T03:12:10;16.60;99.90
4518;DHT22;2271;49.464;11.070;2023-05-10T03:17:45;16.60;99.90
4518;DHT22;2271;49.464;11.070;2023-05-10T03:20:31;16.50;99.90
4518;DHT22;2271;49.464;11.070;2023-05-10T03:23:04;16.50;99.90
4518;DHT22;2271;49.464;11.070;2023-05-10T03:25:31;16.40;99.90
4518;DHT22;2271;49.464;11.070;2023-05-10T03:27:58;16.40;99.90
4518;DHT22;2271;49.464;11.070;2023-05-10T03:30:25;16.40;99.90
4518;DHT22;2271;49.464;11.070;2023-05-10T03:32:50;16.40;99.90
4518;DHT22;2271;49.464;11.070;2023-05-10T03:35:16;16.40;99.90
4518;DHT22;2271;49.464;11.070;2023-05-10T03:37:42;16.40;99.90
4518;DHT22;2271;49.464;11.070;2023-05-10T03:40:08;16.40;99.90
4518;DHT22;2271;49.464;11.070;2023-05-10T03:42:34;16.40;99.90
4518;DHT22;2271;49.464;11.070;2023-05-10T03:45:00;16.40;99.90
4518;DHT22;2271;49.464;11.070;2023-05-10T03:47:25;16.30;99.90
4518;DHT22;2271;49.464;11.070;2023-05-10T03:49:51;16.30;99.90
4518;DHT22;2271;49.464;11.070;2023-05-10T03:52:17;16.30;99.90
4518;DHT22;2271;49.464;11.070;2023-05-10T03:54:43;16.20;99.90
4518;DHT22;2271;49.464;11.070;2023-05-10T03:57:09;16.20;99.90
4518;DHT22;2271;49.464;11.070;2023-05-10T03:59:35;16.10;99.90
4518;DHT22;2271;49.464;11.070;2023-05-10T04:02:00;16.10;99.90
4518;DHT22;2271;49.464;11.070;2023-05-10T04:04:26;16.10;99.90
4518;DHT22;2271;49.464;11.070;2023-05-10T04:06:51;16.10;99.90
4518;DHT22;2271;49.464;11.070;2023-05-10T04:09:17;16.10;99.90
4518;DHT22;2271;49.464;11.070;2023-05-10T04:11:43;16.10;99.90
4518;DHT22;2271;49.464;11.070;2023-05-10T04:14:09;16.10;99.90
4518;DHT22;2271;49.464;11.070;2023-05-10T04:16:34;16.10;99.90
4518;DHT22;2271;49.464;11.070;2023-05-10T04:19:00;16.00;99.90
4518;DHT22;2271;49.464;11.070;2023-05-10T04:21:25;16.00;99.90
4518;DHT22;2271;49.464;11.070;2023-05-10T04:23:51;16.00;99.90
4518;DHT22;2271;49.464;11.070;2023-05-10T04:26:17;15.90;99.90
4518;DHT22;2271;49.464;11.070;2023-05-10T04:28:42;15.90;99.90
4518;DHT22;2271;49.464;11.070;2023-05-10T04:31:09;15.90;99.90
4518;DHT22;2271;49.464;11.070;2023-05-10T04:33:36;15.80;99.90
4518;DHT22;2271;49.464;11.070;2023-05-10T04:36:02;15.80;99.90
4518;DHT22;2271;49.464;11.070;2023-05-10T04:38:28;15.80;99.90
4518;DHT22;2271;49.464;11.070;2023-05-10T04:40:54;15.80;99.90
4518;DHT22;2271;49.464;11.070;2023-05-10T04:43:20;15.80;99.90
4518;DHT22;2271;49.464;11.070;2023-05-10T04:45:46;15.80;99.90
4518;DHT22;2271;49.464;11.070;2023-05-10T04:48:11;15.80;99.90
4518;DHT22;2271;49.464;11.070;2023-05-10T04:50:38;15.80;99.90
4518;DHT22;2271;49.464;11.070;2023-05-10T04:53:04;15.80;99.90
4518;DHT22;2271;49.464;11.070;2023-05-10T04:55:30;15.80;99.90
4518;DHT22;2271;49.464;11.070;2023-05-10T04:57:55;15.80;99.90
4518;DHT22;2271;49.464;11.070;2023-05-10T05:00:22;15.80;99.90
4518;DHT22;2271;49.464;11.070;2023-05-10T05:02:48;15.80;99.90
4518;DHT22;2271;49.464;11.070;2023-05-10T05:05:14;15.80;99.90
4518;DHT22;2271;49.464;11.070;2023-05-10T05:07:40;15.80;99.90
4518;DHT22;2271;49.464;11.070;2023-05-10T05:10:06;15.80;99.90
4518;DHT22;2271;49.464;11.070;2023-05-10T05:12:32;15.80;99.90
4518;DHT22;2271;49.464;11.070;2023-05-10T05:14:58;15.90;99.90
4518;DHT22;2271;49.464;11.070;2023-05-10T05:17:24;15.80;99.90
4518;DHT22;2271;49.464;11.070;2023-05-10T05:19:49;15.80;99.90
4518;DHT22;2271;49.464;11.070;2023-05-10T05:22:15;15.80;99.90
4518;DHT22;2271;49.464;11.070;2023-05-10T05:24:40;15.80;99.90
4518;DHT22;2271;49.464;11.070;2023-05-10T05:27:06;15.80;99.90
4518;DHT22;2271;49.464;11.070;2023-05-10T05:29:32;15.90;99.90
4518;DHT22;2271;49.464;11.070;2023-05-10T05:31:58;15.90;99.90
4518;DHT22;2271;49.464;11.070;2023-05-10T05:34:23;15.90;99.90
4518;DHT22;2271;49.464;11.070;2023-05-10T05:36:49;15.90;99.90
4518;DHT22;2271;49.464;11.070;2023-05-10T05:39:15;15.90;99.90
4518;DHT22;2271;49.464;11.070;2023-05-10T05:41:40;15.80;99.90
4518;DHT22;2271;49.464;11.070;2023-05-10T05:44:06;15.80;99.90
4518;DHT22;2271;49.464;11.070;2023-05-10T05:46:32;15.80;99.90
4518;DHT22;2271;49.464;11.070;2023-05-10T05:48:57;15.80;99.90
4518;DHT22;2271;49.464;11.070;2023-05-10T05:51:23;15.90;99.90
4518;DHT22;2271;49.464;11.070;2023-05-10T05:53:49;15.90;99.90
4518;DHT22;2271;49.464;11.070;2023-05-10T05:56:14;16.00;99.90
4518;DHT22;2271;49.464;11.070;2023-05-10T05:58:40;16.00;99.90
4518;DHT22;2271;49.464;11.070;2023-05-10T06:01:05;16.00;99.90
4518;DHT22;2271;49.464;11.070;2023-05-10T06:03:31;16.00;99.90
4518;DHT22;2271;49.464;11.070;2023-05-10T06:05:58;16.00;99.90
4518;DHT22;2271;49.464;11.070;2023-05-10T06:08:23;16.00;99.90
4518;DHT22;2271;49.464;11.070;2023-05-10T06:10:49;16.00;99.90
4518;DHT22;2271;49.464;11.070;2023-05-10T06:13:14;16.00;99.90
4518;DHT22;2271;49.464;11.070;2023-05-10T06:15:40;16.10;99.90
4518;DHT22;2271;49.464;11.070;2023-05-10T06:18:06;16.20;99.90
4518;DHT22;2271;49.464;11.070;2023-05-10T06:20:32;16.20;99.90
4518;DHT22;2271;49.464;11.070;2023-05-10T06:22:58;16.10;99.90
4518;DHT22;2271;49.464;11.070;2023-05-10T06:25:23;16.20;99.90
4518;DHT22;2271;49.464;11.070;2023-05-10T06:27:49;16.20;99.90
4518;DHT22;2271;49.464;11.070;2023-05-10T06:30:15;16.30;99.90
4518;DHT22;2271;49.464;11.070;2023-05-10T06:32:41;16.40;99.90
4518;DHT22;2271;49.464;11.070;2023-05-10T06:35:09;16.40;99.90
4518;DHT22;2271;49.464;11.070;2023-05-10T06:37:34;16.50;99.90
4518;DHT22;2271;49.464;11.070;2023-05-10T06:40:00;16.60;99.90
4518;DHT22;2271;49.464;11.070;2023-05-10T06:42:26;16.70;99.90
4518;DHT22;2271;49.464;11.070;2023-05-10T06:44:52;16.70;99.90
4518;DHT22;2271;49.464;11.070;2023-05-10T06:47:18;16.80;99.90
4518;DHT22;2271;49.464;11.070;2023-05-10T06:49:44;16.80;99.90
4518;DHT22;2271;49.464;11.070;2023-05-10T06:52:09;16.80;99.90
4518;DHT22;2271;49.464;11.070;2023-05-10T06:54:35;16.80;99.90
4518;DHT22;2271;49.464;11.070;2023-05-10T06:57:00;17.00;99.90
4518;DHT22;2271;49.464;11.070;2023-05-10T06:59:28;17.00;99.90
4518;DHT22;2271;49.464;11.070;2023-05-10T07:01:54;17.00;99.90
4518;DHT22;2271;49.464;11.070;2023-05-10T07:04:19;17.00;99.90
4518;DHT22;2271;49.464;11.070;2023-05-10T07:06:45;17.00;99.90
4518;DHT22;2271;49.464;11.070;2023-05-10T07:09:12;17.00;99.90
4518;DHT22;2271;49.464;11.070;2023-05-10T07:11:38;17.00;99.90
4518;DHT22;2271;49.464;11.070;2023-05-10T07:14:04;17.00;99.90
4518;DHT22;2271;49.464;11.070;2023-05-10T07:16:30;16.90;99.90
4518;DHT22;2271;49.464;11.070;2023-05-10T07:18:56;17.10;99.90
4518;DHT22;2271;49.464;11.070;2023-05-10T07:21:21;17.10;99.90
4518;DHT22;2271;49.464;11.070;2023-05-10T07:23:49;17.10;99.90
4518;DHT22;2271;49.464;11.070;2023-05-10T07:26:15;17.00;99.90
4518;DHT22;2271;49.464;11.070;2023-05-10T07:28:41;17.10;99.90
4518;DHT22;2271;49.464;11.070;2023-05-10T07:31:07;17.10;99.90
4518;DHT22;2271;49.464;11.070;2023-05-10T07:33:32;17.20;99.90
4518;DHT22;2271;49.464;11.070;2023-05-10T07:35:58;17.20;99.90
4518;DHT22;2271;49.464;11.070;2023-05-10T07:38:25;17.20;99.90
4518;DHT22;2271;49.464;11.070;2023-05-10T07:40:51;17.10;99.90
4518;DHT22;2271;49.464;11.070;2023-05-10T07:43:16;17.10;99.90
4518;DHT22;2271;49.464;11.070;2023-05-10T07:45:42;17.10;99.90
4518;DHT22;2271;49.464;11.070;2023-05-10T07:48:07;17.00;99.90
4518;DHT22;2271;49.464;11.070;2023-05-10T07:50:33;16.90;99.90
4518;DHT22;2271;49.464;11.070;2023-05-10T07:52:59;16.80;99.90
4518;DHT22;2271;49.464;11.070;2023-05-10T07:55:24;16.80;99.90
4518;DHT22;2271;49.464;11.070;2023-05-10T07:57:50;16.80;99.90
4518;DHT22;2271;49.464;11.070;2023-05-10T08:00:20;16.80;99.90
4518;DHT22;2271;49.464;11.070;2023-05-10T08:02:46;16.80;99.90
4518;DHT22;2271;49.464;11.070;2023-05-10T08:05:12;16.90;99.90
4518;DHT22;2271;49.464;11.070;2023-05-10T08:07:38;16.90;99.90
4518;DHT22;2271;49.464;11.070;2023-05-10T08:10:04;16.90;99.90
4518;DHT22;2271;49.464;11.070;2023-05-10T08:12:30;16.90;99.90
4518;DHT22;2271;49.464;11.070;2023-05-10T08:14:56;16.90;99.90
4518;DHT22;2271;49.464;11.070;2023-05-10T08:17:22;16.90;99.90
4518;DHT22;2271;49.464;11.070;2023-05-10T08:19:48;17.00;99.90
4518;DHT22;2271;49.464;11.070;2023-05-10T08:22:13;17.10;99.90
4518;DHT22;2271;49.464;11.070;2023-05-10T08:24:39;17.10;99.90
4518;DHT22;2271;49.464;11.070;2023-05-10T08:27:07;17.10;99.90
4518;DHT22;2271;49.464;11.070;2023-05-10T08:29:33;17.20;99.90
4518;DHT22;2271;49.464;11.070;2023-05-10T08:31:59;17.30;99.90
4518;DHT22;2271;49.464;11.070;2023-05-10T08:34:26;17.30;99.90
4518;DHT22;2271;49.464;11.070;2023-05-10T08:36:52;17.40;99.90
4518;DHT22;2271;49.464;11.070;2023-05-10T08:39:17;17.30;99.90
4518;DHT22;2271;49.464;11.070;2023-05-10T08:41:45;17.30;99.90
4518;DHT22;2271;49.464;11.070;2023-05-10T08:44:12;17.50;99.90
4518;DHT22;2271;49.464;11.070;2023-05-10T08:46:41;17.70;99.90
4518;DHT22;2271;49.464;11.070;2023-05-10T08:49:12;17.80;99.90
4518;DHT22;2271;49.464;11.070;2023-05-10T08:51:43;17.90;99.90
4518;DHT22;2271;49.464;11.070;2023-05-10T08:54:09;18.00;99.90
4518;DHT22;2271;49.464;11.070;2023-05-10T08:56:36;18.10;99.90
4518;DHT22;2271;49.464;11.070;2023-05-10T08:59:01;18.10;99.90
4518;DHT22;2271;49.464;11.070;2023-05-10T09:01:28;18.10;99.90
4518;DHT22;2271;49.464;11.070;2023-05-10T09:03:58;18.10;99.90
4518;DHT22;2271;49.464;11.070;2023-05-10T09:06:24;18.00;99.90
4518;DHT22;2271;49.464;11.070;2023-05-10T09:08:50;17.90;99.90
4518;DHT22;2271;49.464;11.070;2023-05-10T09:11:17;17.70;99.90
4518;DHT22;2271;49.464;11.070;2023-05-10T09:13:43;17.50;99.90
4518;DHT22;2271;49.464;11.070;2023-05-10T09:16:09;17.30;99.90
4518;DHT22;2271;49.464;11.070;2023-05-10T09:18:35;17.00;99.90
4518;DHT22;2271;49.464;11.070;2023-05-10T09:21:01;16.80;99.90
4518;DHT22;2271;49.464;11.070;2023-05-10T09:23:27;16.50;99.90
4518;DHT22;2271;49.464;11.070;2023-05-10T09:26:06;16.50;99.90
4518;DHT22;2271;49.464;11.070;2023-05-10T09:31:16;16.50;99.90
4518;DHT22;2271;49.464;11.070;2023-05-10T09:33:48;16.60;99.90
4518;DHT22;2271;49.464;11.070;2023-05-10T09:36:15;16.60;99.90
4518;DHT22;2271;49.464;11.070;2023-05-10T09:38:48;16.60;99.90
4518;DHT22;2271;49.464;11.070;2023-05-10T09:41:23;16.70;99.90
4518;DHT22;2271;49.464;11.070;2023-05-10T09:43:55;16.80;99.90
4518;DHT22;2271;49.464;11.070;2023-05-10T09:46:21;16.80;99.90
4518;DHT22;2271;49.464;11.070;2023-05-10T09:48:48;17.00;99.90
4518;DHT22;2271;49.464;11.070;2023-05-10T09:51:21;17.00;99.90
4518;DHT22;2271;49.464;11.070;2023-05-10T09:53:47;17.20;99.90
4518;DHT22;2271;49.464;11.070;2023-05-10T09:56:12;17.60;99.90
4518;DHT22;2271;49.464;11.070;2023-05-10T09:58:39;17.90;99.90
4518;DHT22;2271;49.464;11.070;2023-05-10T10:01:11;18.10;99.90
4518;DHT22;2271;49.464;11.070;2023-05-10T10:03:42;18.30;99.90
4518;DHT22;2271;49.464;11.070;2023-05-10T10:06:08;18.40;99.90
4518;DHT22;2271;49.464;11.070;2023-05-10T10:08:34;18.50;99.90
4518;DHT22;2271;49.464;11.070;2023-05-10T10:11:00;18.50;99.90
4518;DHT22;2271;49.464;11.070;2023-05-10T10:13:26;18.50;99.90
4518;DHT22;2271;49.464;11.070;2023-05-10T10:15:54;18.50;99.90
4518;DHT22;2271;49.464;11.070;2023-05-10T10:18:20;18.60;99.90
4518;DHT22;2271;49.464;11.070;2023-05-10T10:20:53;18.70;99.90
4518;DHT22;2271;49.464;11.070;2023-05-10T10:23:19;19.00;99.90
4518;DHT22;2271;49.464;11.070;2023-05-10T10:25:45;19.40;99.90
4518;DHT22;2271;49.464;11.070;2023-05-10T10:28:23;19.50;99.90
4518;DHT22;2271;49.464;11.070;2023-05-10T10:30:51;19.40;99.90
4518;DHT22;2271;49.464;11.070;2023-05-10T10:36:03;19.30;99.90
4518;DHT22;2271;49.464;11.070;2023-05-10T10:41:32;19.40;99.90
4518;DHT22;2271;49.464;11.070;2023-05-10T10:50:03;18.80;99.90
4518;DHT22;2271;49.464;11.070;2023-05-10T10:52:39;18.40;99.90
4518;DHT22;2271;49.464;11.070;2023-05-10T10:55:08;18.30;99.90
4518;DHT22;2271;49.464;11.070;2023-05-10T11:00:22;18.10;99.90
4518;DHT22;2271;49.464;11.070;2023-05-10T11:02:50;18.00;99.90
4518;DHT22;2271;49.464;11.070;2023-05-10T11:05:49;17.90;99.90
4518;DHT22;2271;49.464;11.070;2023-05-10T11:08:29;17.90;99.90
4518;DHT22;2271;49.464;11.070;2023-05-10T11:13:46;17.90;99.90
4518;DHT22;2271;49.464;11.070;2023-05-10T11:16:24;17.90;99.90
4518;DHT22;2271;49.464;11.070;2023-05-10T11:18:59;17.80;99.90
4518;DHT22;2271;49.464;11.070;2023-05-10T11:21:27;17.90;99.90
4518;DHT22;2271;49.464;11.070;2023-05-10T11:23:55;18.00;99.90
4518;DHT22;2271;49.464;11.070;2023-05-10T11:26:24;18.00;99.90
4518;DHT22;2271;49.464;11.070;2023-05-10T11:28:52;18.00;99.90
4518;DHT22;2271;49.464;11.070;2023-05-10T11:31:20;18.00;99.90
4518;DHT22;2271;49.464;11.070;2023-05-10T11:33:57;18.00;99.90
4518;DHT22;2271;49.464;11.070;2023-05-10T11:36:24;18.00;99.90
4518;DHT22;2271;49.464;11.070;2023-05-10T11:38:50;18.10;99.90
4518;DHT22;2271;49.464;11.070;2023-05-10T11:41:18;18.20;99.90
4518;DHT22;2271;49.464;11.070;2023-05-10T11:43:45;18.20;99.90
4518;DHT22;2271;49.464;11.070;2023-05-10T11:46:13;18.20;99.90
4518;DHT22;2271;49.464;11.070;2023-05-10T11:48:39;18.20;99.90
4518;DHT22;2271;49.464;11.070;2023-05-10T11:51:06;18.30;99.90
4518;DHT22;2271;49.464;11.070;2023-05-10T11:53:33;18.30;99.90
4518;DHT22;2271;49.464;11.070;2023-05-10T11:56:06;18.40;99.90
4518;DHT22;2271;49.464;11.070;2023-05-10T11:58:33;18.40;99.90
4518;DHT22;2271;49.464;11.070;2023-05-10T12:01:02;18.50;99.90
4518;DHT22;2271;49.464;11.070;2023-05-10T12:03:29;18.50;99.90
4518;DHT22;2271;49.464;11.070;2023-05-10T12:05:58;18.60;99.90
4518;DHT22;2271;49.464;11.070;2023-05-10T12:08:26;18.60;99.90
4518;DHT22;2271;49.464;11.070;2023-05-10T12:10:53;18.60;99.90
4518;DHT22;2271;49.464;11.070;2023-05-10T12:13:20;18.50;99.90
4518;DHT22;2271;49.464;11.070;2023-05-10T12:15:46;18.40;99.90
4518;DHT22;2271;49.464;11.070;2023-05-10T12:18:14;18.40;99.90
4518;DHT22;2271;49.464;11.070;2023-05-10T12:20:40;18.40;99.90
4518;DHT22;2271;49.464;11.070;2023-05-10T12:23:08;18.30;99.90
4518;DHT22;2271;49.464;11.070;2023-05-10T12:25:36;18.20;99.90
4518;DHT22;2271;49.464;11.070;2023-05-10T12:28:04;18.30;99.90
4518;DHT22;2271;49.464;11.070;2023-05-10T12:33:09;18.30;99.90
4518;DHT22;2271;49.464;11.070;2023-05-10T12:38:32;18.40;99.90
4518;DHT22;2271;49.464;11.070;2023-05-10T12:41:00;18.40;99.90
4518;DHT22;2271;49.464;11.070;2023-05-10T12:43:26;18.50;99.90
4518;DHT22;2271;49.464;11.070;2023-05-10T12:45:51;18.50;99.90
4518;DHT22;2271;49.464;11.070;2023-05-10T12:48:17;18.50;99.90
4518;DHT22;2271;49.464;11.070;2023-05-10T12:50:43;18.50;99.90
4518;DHT22;2271;49.464;11.070;2023-05-10T12:53:09;18.50;99.90
4518;DHT22;2271;49.464;11.070;2023-05-10T12:55:34;18.50;99.90
4518;DHT22;2271;49.464;11.070;2023-05-10T12:58:00;18.60;99.90
4518;DHT22;2271;49.464;11.070;2023-05-10T13:00:25;18.50;99.90
4518;DHT22;2271;49.464;11.070;2023-05-10T13:02:51;18.50;99.90
4518;DHT22;2271;49.464;11.070;2023-05-10T13:05:17;18.50;99.90
4518;DHT22;2271;49.464;11.070;2023-05-10T13:07:43;18.50;99.90
4518;DHT22;2271;49.464;11.070;2023-05-10T13:10:09;18.50;99.90
4518;DHT22;2271;49.464;11.070;2023-05-10T13:12:35;18.50;99.90
4518;DHT22;2271;49.464;11.070;2023-05-10T13:15:02;18.50;99.90
4518;DHT22;2271;49.464;11.070;2023-05-10T13:17:28;18.60;99.90
4518;DHT22;2271;49.464;11.070;2023-05-10T13:19:54;18.60;99.90
4518;DHT22;2271;49.464;11.070;2023-05-10T13:22:20;18.60;99.90
4518;DHT22;2271;49.464;11.070;2023-05-10T13:24:46;18.60;99.90
4518;DHT22;2271;49.464;11.070;2023-05-10T13:27:11;18.60;99.90
4518;DHT22;2271;49.464;11.070;2023-05-10T13:29:37;18.50;99.90
4518;DHT22;2271;49.464;11.070;2023-05-10T13:32:03;18.30;99.90
4518;DHT22;2271;49.464;11.070;2023-05-10T13:34:28;18.20;99.90
4518;DHT22;2271;49.464;11.070;2023-05-10T13:36:54;18.10;99.90
4518;DHT22;2271;49.464;11.070;2023-05-10T13:39:21;18.00;99.90
4518;DHT22;2271;49.464;11.070;2023-05-10T13:41:47;17.80;99.90
4518;DHT22;2271;49.464;11.070;2023-05-10T13:44:13;17.70;99.90
4518;DHT22;2271;49.464;11.070;2023-05-10T13:46:40;17.60;99.90
4518;DHT22;2271;49.464;11.070;2023-05-10T13:49:06;17.60;99.90
4518;DHT22;2271;49.464;11.070;2023-05-10T13:51:33;17.60;99.90
4518;DHT22;2271;49.464;11.070;2023-05-10T13:53:59;17.60;99.90
4518;DHT22;2271;49.464;11.070;2023-05-10T13:56:24;17.70;99.90
4518;DHT22;2271;49.464;11.070;2023-05-10T13:58:50;17.70;99.90
4518;DHT22;2271;49.464;11.070;2023-05-10T14:01:16;17.80;99.90
4518;DHT22;2271;49.464;11.070;2023-05-10T14:03:42;17.90;99.90
4518;DHT22;2271;49.464;11.070;2023-05-10T14:06:08;17.90;99.90
4518;DHT22;2271;49.464;11.070;2023-05-10T14:08:34;17.90;99.90
4518;DHT22;2271;49.464;11.070;2023-05-10T14:11:00;18.00;99.90
4518;DHT22;2271;49.464;11.070;2023-05-10T14:13:25;18.00;99.90
4518;DHT22;2271;49.464;11.070;2023-05-10T14:15:52;18.00;99.90
4518;DHT22;2271;49.464;11.070;2023-05-10T14:18:18;18.10;99.90
4518;DHT22;2271;49.464;11.070;2023-05-10T14:20:44;18.00;99.90
4518;DHT22;2271;49.464;11.070;2023-05-10T14:23:10;18.10;99.90
4518;DHT22;2271;49.464;11.070;2023-05-10T14:25:35;18.00;99.90
4518;DHT22;2271;49.464;11.070;2023-05-10T14:28:01;18.00;99.90
4518;DHT22;2271;49.464;11.070;2023-05-10T14:30:27;17.90;99.90
4518;DHT22;2271;49.464;11.070;2023-05-10T14:32:52;17.90;99.90
4518;DHT22;2271;49.464;11.070;2023-05-10T14:35:19;17.90;99.90
4518;DHT22;2271;49.464;11.070;2023-05-10T14:37:45;17.80;99.90
4518;DHT22;2271;49.464;11.070;2023-05-10T14:40:11;17.80;99.90
4518;DHT22;2271;49.464;11.070;2023-05-10T14:42:37;17.80;99.90
4518;DHT22;2271;49.464;11.070;2023-05-10T14:45:04;17.70;99.90
4518;DHT22;2271;49.464;11.070;2023-05-10T14:47:29;17.70;99.90
4518;DHT22;2271;49.464;11.070;2023-05-10T14:49:55;17.80;99.90
4518;DHT22;2271;49.464;11.070;2023-05-10T14:52:21;17.80;99.90
4518;DHT22;2271;49.464;11.070;2023-05-10T14:54:46;17.80;99.90
4518;DHT22;2271;49.464;11.070;2023-05-10T14:57:12;17.90;99.90
4518;DHT22;2271;49.464;11.070;2023-05-10T14:59:38;17.90;99.90
4518;DHT22;2271;49.464;11.070;2023-05-10T15:02:03;18.00;99.90
4518;DHT22;2271;49.464;11.070;2023-05-10T15:04:29;18.00;99.90
4518;DHT22;2271;49.464;11.070;2023-05-10T15:06:55;18.00;99.90
4518;DHT22;2271;49.464;11.070;2023-05-10T15:09:30;18.00;99.90
4518;DHT22;2271;49.464;11.070;2023-05-10T15:11:56;18.00;99.90
4518;DHT22;2271;49.464;11.070;2023-05-10T15:14:22;18.00;99.90
4518;DHT22;2271;49.464;11.070;2023-05-10T15:16:48;17.90;99.90
4518;DHT22;2271;49.464;11.070;2023-05-10T15:19:14;17.60;99.90
4518;DHT22;2271;49.464;11.070;2023-05-10T15:21:40;17.50;99.90
4518;DHT22;2271;49.464;11.070;2023-05-10T15:24:08;17.30;99.90
4518;DHT22;2271;49.464;11.070;2023-05-10T15:26:34;17.30;99.90
4518;DHT22;2271;49.464;11.070;2023-05-10T15:29:00;17.30;99.90
4518;DHT22;2271;49.464;11.070;2023-05-10T15:31:26;17.30;99.90
4518;DHT22;2271;49.464;11.070;2023-05-10T15:33:57;17.30;99.90
4518;DHT22;2271;49.464;11.070;2023-05-10T15:36:23;17.30;99.90
4518;DHT22;2271;49.464;11.070;2023-05-10T15:38:49;17.30;99.90
4518;DHT22;2271;49.464;11.070;2023-05-10T15:41:15;17.30;99.90
4518;DHT22;2271;49.464;11.070;2023-05-10T15:43:40;17.40;99.90
4518;DHT22;2271;49.464;11.070;2023-05-10T15:46:06;17.40;99.90
4518;DHT22;2271;49.464;11.070;2023-05-10T15:48:32;17.40;99.90
4518;DHT22;2271;49.464;11.070;2023-05-10T15:50:58;17.40;99.90
4518;DHT22;2271;49.464;11.070;2023-05-10T15:53:23;17.40;99.90
4518;DHT22;2271;49.464;11.070;2023-05-10T15:55:50;17.20;99.90
4518;DHT22;2271;49.464;11.070;2023-05-10T15:58:16;17.20;99.90
4518;DHT22;2271;49.464;11.070;2023-05-10T16:00:41;17.20;99.90
4518;DHT22;2271;49.464;11.070;2023-05-10T16:03:07;17.20;99.90
4518;DHT22;2271;49.464;11.070;2023-05-10T16:05:33;17.20;99.90
4518;DHT22;2271;49.464;11.070;2023-05-10T16:07:59;17.20;99.90
4518;DHT22;2271;49.464;11.070;2023-05-10T16:10:26;17.10;99.90
4518;DHT22;2271;49.464;11.070;2023-05-10T16:12:53;17.10;99.90
4518;DHT22;2271;49.464;11.070;2023-05-10T16:15:19;17.10;99.90
4518;DHT22;2271;49.464;11.070;2023-05-10T16:17:46;17.10;99.90
4518;DHT22;2271;49.464;11.070;2023-05-10T16:20:11;17.10;99.90
4518;DHT22;2271;49.464;11.070;2023-05-10T16:22:37;17.10;99.90